Rylan Jade — WDI4904 — position and weather

sailwx.info

Track history (hours):
 
Tides and Currents Weather Stations Pressure Air Temp Water Temp Dewpoint Dewpoint Depression Visibility Wind Speed Wind Dir Waves Ship Positions

Rylan Jade

Owner: Marine Express, Inc. - Rylan Jade, Walnut Creek, CA. More information available from US FCC via Universal Licensing System and Coast Guard Vessel Documentation Center.

Last reported at 2018-Jun-19 23:44 UTC. Time now 2018-Jun-23 21:41 UTC.
Position N 33°46' W 118°13'.

; draft 1 m.

Type: Port tender. MMSI: 367067090.

Date/timePositionNaut miles runAvg speedWind from/ knotsBaromVisibWave heightAir tempDewpointWater temp
2018-Jun-19 23:44N 33°46' W 118°13'2 7.5
2018-Jun-19 23:30N 33°44' W 118°13'2 5.0
2018-Jun-19 23:01N 33°46' W 118°13'4 0.2
2018-Jun-18 22:02N 33°43' W 118°15'014.2
2018-Jun-18 22:01N 33°43' W 118°15'2 2.7
2018-Jun-18 21:22N 33°42' W 118°13'0 0.3
2018-Jun-18 21:00N 33°42' W 118°13'3 6.7
2018-Jun-18 20:30N 33°45' W 118°13'1 2.0
2018-Jun-18 20:01N 33°46' W 118°13'0 0.0
2018-Jun-18 19:30N 33°46' W 118°13'  
2018-Jun-15 00:41N 33°46' W 118°13'0 0.0
2018-Jun-15 00:30N 33°46' W 118°13'3 6.9
2018-Jun-15 00:00N 33°43' W 118°14'1 2.9
2018-Jun-14 23:30N 33°44' W 118°15'0 0.1
2018-Jun-14 23:00N 33°44' W 118°15'0 0.3
2018-Jun-14 22:30N 33°44' W 118°15'0 0.0
2018-Jun-14 22:00N 33°44' W 118°15'0 0.1
2018-Jun-14 21:30N 33°44' W 118°15'0 0.1
2018-Jun-14 21:00N 33°44' W 118°15'0 0.0
2018-Jun-14 20:31N 33°44' W 118°15'0 0.0
2018-Jun-14 20:00N 33°44' W 118°15'2 5.0
2018-Jun-14 19:30N 33°45' W 118°13'1 2.0
2018-Jun-14 19:00N 33°46' W 118°13'0 0.0
2018-Jun-14 18:30N 33°46' W 118°13'0 0.0
2018-Jun-13 06:54N 33°46' W 118°13'4 8.3
2018-Jun-13 06:29N 33°43' W 118°12'1 3.1
2018-Jun-13 06:00N 33°42' W 118°13'0 0.1
2018-Jun-13 05:30N 33°42' W 118°13'0 0.1
2018-Jun-13 05:00N 33°42' W 118°13'2 3.2
2018-Jun-13 04:30N 33°43' W 118°14'2 0.1
2018-Jun-12 06:11N 33°45' W 118°13'212.5
2018-Jun-12 06:00N 33°43' W 118°11'611.6
2018-Jun-12 05:30N 33°39' W 118°07'0 0.1
2018-Jun-12 05:00N 33°39' W 118°07'0 0.0
2018-Jun-12 04:30N 33°39' W 118°07'0 0.2
2018-Jun-12 04:00N 33°39' W 118°07'4 7.6
2018-Jun-12 03:30N 33°42' W 118°10'510.1
2018-Jun-12 03:00N 33°46' W 118°13'1 0.1
2018-Jun-11 22:34N 33°46' W 118°13'0 5.6
2018-Jun-11 22:30N 33°46' W 118°13'5 9.2
2018-Jun-11 22:00N 33°42' W 118°10'4 8.6
2018-Jun-11 21:29N 33°39' W 118°07'2 4.3
2018-Jun-11 21:00N 33°40' W 118°09'612.3
2018-Jun-11 20:31N 33°45' W 118°13'8 0.4
2018-Jun-11 02:46N 33°39' W 118°07'0 0.5
2018-Jun-11 02:29N 33°39' W 118°07'0 0.0
2018-Jun-11 02:00N 33°39' W 118°07'0 0.1
2018-Jun-11 01:30N 33°39' W 118°07'510.0
2018-Jun-11 01:01N 33°43' W 118°10'4 8.2
2018-Jun-11 00:30N 33°46' W 118°13'0 0.7
2018-Jun-11 00:00N 33°46' W 118°13'510.9
2018-Jun-10 23:30N 33°41' W 118°09'3 6.7
2018-Jun-10 23:00N 33°39' W 118°07'713.4
2018-Jun-10 22:30N 33°44' W 118°12'2 4.8
2018-Jun-10 22:00N 33°46' W 118°13'1 0.1
2018-Jun-10 17:24N 33°46' W 118°13'9 3.1
2018-Jun-10 14:36N 33°39' W 118°07'4 6.3
2018-Jun-10 14:01N 33°42' W 118°10'510.2
2018-Jun-10 13:31N 33°46' W 118°13'1 1.0
2018-Jun-10 13:00N 33°46' W 118°13'  
Track history (hours):
 
Tides and Currents Weather Stations Pressure Air Temp Water Temp Dewpoint Dewpoint Depression Visibility Wind Speed Wind Dir Waves Ship Positions

Rylan Jade

Owner: Marine Express, Inc. - Rylan Jade, Walnut Creek, CA. More information available from US FCC via Universal Licensing System and Coast Guard Vessel Documentation Center.

Last reported at 2018-Jun-19 23:44 UTC. Time now 2018-Jun-23 21:41 UTC.
Position N 33°46' W 118°13'.

; draft 1 m.

Type: Port tender. MMSI: 367067090.

Date/timePositionNaut miles runAvg speedWind from/ knotsBaromVisibWave heightAir tempDewpointWater temp
2018-Jun-19 23:44N 33°46' W 118°13'2 7.5
2018-Jun-19 23:30N 33°44' W 118°13'2 5.0
2018-Jun-19 23:01N 33°46' W 118°13'4 0.2
2018-Jun-18 22:02N 33°43' W 118°15'014.2
2018-Jun-18 22:01N 33°43' W 118°15'2 2.7
2018-Jun-18 21:22N 33°42' W 118°13'0 0.3
2018-Jun-18 21:00N 33°42' W 118°13'3 6.7
2018-Jun-18 20:30N 33°45' W 118°13'1 2.0
2018-Jun-18 20:01N 33°46' W 118°13'0 0.0
2018-Jun-18 19:30N 33°46' W 118°13'  
2018-Jun-15 00:41N 33°46' W 118°13'0 0.0
2018-Jun-15 00:30N 33°46' W 118°13'3 6.9
2018-Jun-15 00:00N 33°43' W 118°14'1 2.9
2018-Jun-14 23:30N 33°44' W 118°15'0 0.1
2018-Jun-14 23:00N 33°44' W 118°15'0 0.3
2018-Jun-14 22:30N 33°44' W 118°15'0 0.0
2018-Jun-14 22:00N 33°44' W 118°15'0 0.1
2018-Jun-14 21:30N 33°44' W 118°15'0 0.1
2018-Jun-14 21:00N 33°44' W 118°15'0 0.0
2018-Jun-14 20:31N 33°44' W 118°15'0 0.0
2018-Jun-14 20:00N 33°44' W 118°15'2 5.0
2018-Jun-14 19:30N 33°45' W 118°13'1 2.0
2018-Jun-14 19:00N 33°46' W 118°13'0 0.0
2018-Jun-14 18:30N 33°46' W 118°13'0 0.0
2018-Jun-13 06:54N 33°46' W 118°13'4 8.3
2018-Jun-13 06:29N 33°43' W 118°12'1 3.1
2018-Jun-13 06:00N 33°42' W 118°13'0 0.1
2018-Jun-13 05:30N 33°42' W 118°13'0 0.1
2018-Jun-13 05:00N 33°42' W 118°13'2 3.2
2018-Jun-13 04:30N 33°43' W 118°14'2 0.1
2018-Jun-12 06:11N 33°45' W 118°13'212.5
2018-Jun-12 06:00N 33°43' W 118°11'611.6
2018-Jun-12 05:30N 33°39' W 118°07'0 0.1
2018-Jun-12 05:00N 33°39' W 118°07'0 0.0
2018-Jun-12 04:30N 33°39' W 118°07'0 0.2
2018-Jun-12 04:00N 33°39' W 118°07'4 7.6
2018-Jun-12 03:30N 33°42' W 118°10'510.1
2018-Jun-12 03:00N 33°46' W 118°13'1 0.1
2018-Jun-11 22:34N 33°46' W 118°13'0 5.6
2018-Jun-11 22:30N 33°46' W 118°13'5 9.2
2018-Jun-11 22:00N 33°42' W 118°10'4 8.6
2018-Jun-11 21:29N 33°39' W 118°07'2 4.3
2018-Jun-11 21:00N 33°40' W 118°09'612.3
2018-Jun-11 20:31N 33°45' W 118°13'8 0.4
2018-Jun-11 02:46N 33°39' W 118°07'0 0.5
2018-Jun-11 02:29N 33°39' W 118°07'0 0.0
2018-Jun-11 02:00N 33°39' W 118°07'0 0.1
2018-Jun-11 01:30N 33°39' W 118°07'510.0
2018-Jun-11 01:01N 33°43' W 118°10'4 8.2
2018-Jun-11 00:30N 33°46' W 118°13'0 0.7
2018-Jun-11 00:00N 33°46' W 118°13'510.9
2018-Jun-10 23:30N 33°41' W 118°09'3 6.7
2018-Jun-10 23:00N 33°39' W 118°07'713.4
2018-Jun-10 22:30N 33°44' W 118°12'2 4.8
2018-Jun-10 22:00N 33°46' W 118°13'1 0.1
2018-Jun-10 17:24N 33°46' W 118°13'9 3.1
2018-Jun-10 14:36N 33°39' W 118°07'4 6.3
2018-Jun-10 14:01N 33°42' W 118°10'510.2
2018-Jun-10 13:31N 33°46' W 118°13'1 1.0
2018-Jun-10 13:00N 33°46' W 118°13'  

Dump ship's entire track history